Sainte-Felicite, Canada
Current Conditions -  °F | °C
As of 2:14 PM on Saturday 20 Dec 2014 (Local Time) from CYBC Reporting Station
Light Snow Light Snow  
Wind Chill: 21°   Ceiling: 2100
Heat Index: 21°   Visibility: 9mi
Dew Point: 16°   Wind: 3mph
Humidity: 80%   Direction: 310°NW
Pressure: 30.38"   Gusts: NA
Location:  48.9°N, 67.33°W
Report Text: CYBC 201914Z AUTO 31003KT 9SM -SN OVC021 M06/M09 A3038 RMK SLP289
Loading
Personal Weather Stations






























Interactive Weather Map New forecast layout! Learn more

10-Day Weather Forecast

Advertisements
Track Severe Weather on mobile